sensor_id;sensor_type;location;lat;lon;timestamp;pressure;altitude;pressure_sealevel;temperature;humidity
44839;BME280;30576;42.098;24.876;2022-11-27T00:01:26;100877.78;;;6.15;61.73
44839;BME280;30576;42.098;24.876;2022-11-27T00:03:52;100887.81;;;5.96;62.26
44839;BME280;30576;42.098;24.876;2022-11-27T00:06:19;100879.19;;;5.99;62.54
44839;BME280;30576;42.098;24.876;2022-11-27T00:08:45;100881.09;;;6.06;61.93
44839;BME280;30576;42.098;24.876;2022-11-27T00:11:12;100881.66;;;5.94;62.36
44839;BME280;30576;42.098;24.876;2022-11-27T00:13:38;100883.34;;;5.90;62.24
44839;BME280;30576;42.098;24.876;2022-11-27T00:16:03;100877.44;;;5.99;61.72
44839;BME280;30576;42.098;24.876;2022-11-27T00:18:29;100880.97;;;6.00;61.55
44839;BME280;30576;42.098;24.876;2022-11-27T00:20:54;100891.03;;;5.83;62.27
44839;BME280;30576;42.098;24.876;2022-11-27T00:23:20;100889.34;;;5.86;62.41
44839;BME280;30576;42.098;24.876;2022-11-27T00:25:49;100885.03;;;5.88;62.33
44839;BME280;30576;42.098;24.876;2022-11-27T00:28:14;100886.00;;;5.92;62.53
44839;BME280;30576;42.098;24.876;2022-11-27T00:30:39;100884.41;;;5.97;62.56
44839;BME280;30576;42.098;24.876;2022-11-27T00:33:05;100894.06;;;6.00;62.07
44839;BME280;30576;42.098;24.876;2022-11-27T00:35:30;100889.47;;;5.91;61.74
44839;BME280;30576;42.098;24.876;2022-11-27T00:37:55;100904.31;;;5.90;61.75
44839;BME280;30576;42.098;24.876;2022-11-27T00:40:21;100897.53;;;5.99;61.19
44839;BME280;30576;42.098;24.876;2022-11-27T00:42:46;100904.81;;;5.76;61.78
44839;BME280;30576;42.098;24.876;2022-11-27T00:45:11;100904.03;;;5.80;61.68
44839;BME280;30576;42.098;24.876;2022-11-27T00:47:37;100907.84;;;5.57;61.34
44839;BME280;30576;42.098;24.876;2022-11-27T00:50:02;100909.88;;;5.68;61.37
44839;BME280;30576;42.098;24.876;2022-11-27T00:52:28;100916.66;;;5.60;61.65
44839;BME280;30576;42.098;24.876;2022-11-27T00:54:53;100910.28;;;5.50;61.52
44839;BME280;30576;42.098;24.876;2022-11-27T00:57:18;100915.78;;;5.26;62.20
44839;BME280;30576;42.098;24.876;2022-11-27T00:59:44;100908.03;;;5.29;62.56
44839;BME280;30576;42.098;24.876;2022-11-27T01:02:09;100904.75;;;5.37;61.90
44839;BME280;30576;42.098;24.876;2022-11-27T01:04:35;100906.44;;;5.35;62.21
44839;BME280;30576;42.098;24.876;2022-11-27T01:07:00;100895.44;;;5.49;62.28
44839;BME280;30576;42.098;24.876;2022-11-27T01:09:25;100897.22;;;5.51;62.16
44839;BME280;30576;42.098;24.876;2022-11-27T01:11:52;100893.72;;;5.49;62.82
44839;BME280;30576;42.098;24.876;2022-11-27T01:14:17;100884.63;;;5.35;62.83
44839;BME280;30576;42.098;24.876;2022-11-27T01:16:42;100886.41;;;5.37;62.43
44839;BME280;30576;42.098;24.876;2022-11-27T01:19:08;100885.06;;;5.52;62.71
44839;BME280;30576;42.098;24.876;2022-11-27T01:21:34;100883.56;;;5.63;62.48
44839;BME280;30576;42.098;24.876;2022-11-27T01:24:00;100891.00;;;5.81;62.56
44839;BME280;30576;42.098;24.876;2022-11-27T01:26:26;100891.88;;;5.82;62.56
44839;BME280;30576;42.098;24.876;2022-11-27T01:28:51;100893.13;;;5.98;61.68
44839;BME280;30576;42.098;24.876;2022-11-27T01:31:22;100886.94;;;5.96;61.99
44839;BME280;30576;42.098;24.876;2022-11-27T01:33:51;100882.94;;;6.10;61.72
44839;BME280;30576;42.098;24.876;2022-11-27T01:36:16;100886.38;;;6.07;61.95
44839;BME280;30576;42.098;24.876;2022-11-27T01:38:41;100887.28;;;5.73;62.44
44839;BME280;30576;42.098;24.876;2022-11-27T01:41:15;100896.25;;;5.83;62.46
44839;BME280;30576;42.098;24.876;2022-11-27T01:48:40;100895.69;;;5.96;62.39
44839;BME280;30576;42.098;24.876;2022-11-27T01:51:06;100900.81;;;5.91;62.27
44839;BME280;30576;42.098;24.876;2022-11-27T01:53:31;100893.13;;;5.98;61.93
44839;BME280;30576;42.098;24.876;2022-11-27T01:55:58;100894.72;;;5.92;62.27
44839;BME280;30576;42.098;24.876;2022-11-27T01:58:26;100895.47;;;5.87;62.34
44839;BME280;30576;42.098;24.876;2022-11-27T02:00:53;100890.03;;;5.79;62.91
44839;BME280;30576;42.098;24.876;2022-11-27T02:03:18;100880.03;;;5.98;62.84
44839;BME280;30576;42.098;24.876;2022-11-27T02:05:44;100892.94;;;5.91;63.42
44839;BME280;30576;42.098;24.876;2022-11-27T02:08:10;100882.59;;;5.96;63.49
44839;BME280;30576;42.098;24.876;2022-11-27T02:13:29;100889.63;;;5.97;63.91
44839;BME280;30576;42.098;24.876;2022-11-27T02:18:43;100888.13;;;6.08;63.92
44839;BME280;30576;42.098;24.876;2022-11-27T02:28:51;100881.94;;;6.05;63.87
44839;BME280;30576;42.098;24.876;2022-11-27T02:31:17;100880.06;;;5.99;64.59
44839;BME280;30576;42.098;24.876;2022-11-27T02:33:47;100888.22;;;6.13;64.54
44839;BME280;30576;42.098;24.876;2022-11-27T02:36:18;100881.31;;;6.15;64.21
44839;BME280;30576;42.098;24.876;2022-11-27T02:38:46;100892.00;;;6.24;64.22
44839;BME280;30576;42.098;24.876;2022-11-27T02:41:27;100887.69;;;6.28;64.29
44839;BME280;30576;42.098;24.876;2022-11-27T02:43:53;100888.66;;;6.33;64.35
44839;BME280;30576;42.098;24.876;2022-11-27T02:46:19;100884.22;;;6.29;63.86
44839;BME280;30576;42.098;24.876;2022-11-27T02:48:49;100889.47;;;6.29;64.26
44839;BME280;30576;42.098;24.876;2022-11-27T02:51:16;100897.41;;;6.32;63.69
44839;BME280;30576;42.098;24.876;2022-11-27T02:53:45;100901.56;;;6.24;63.99
44839;BME280;30576;42.098;24.876;2022-11-27T02:56:14;100902.50;;;6.26;64.15
44839;BME280;30576;42.098;24.876;2022-11-27T02:58:41;100904.22;;;6.25;63.85
44839;BME280;30576;42.098;24.876;2022-11-27T03:01:06;100900.88;;;6.31;63.40
44839;BME280;30576;42.098;24.876;2022-11-27T03:03:34;100900.59;;;6.19;63.87
44839;BME280;30576;42.098;24.876;2022-11-27T03:06:05;100899.41;;;6.04;63.89
44839;BME280;30576;42.098;24.876;2022-11-27T03:13:26;100910.97;;;6.14;63.14
44839;BME280;30576;42.098;24.876;2022-11-27T03:18:53;100913.75;;;5.85;63.42
44839;BME280;30576;42.098;24.876;2022-11-27T03:21:25;100907.53;;;5.80;63.33
44839;BME280;30576;42.098;24.876;2022-11-27T03:23:52;100910.38;;;5.89;63.33
44839;BME280;30576;42.098;24.876;2022-11-27T03:26:17;100910.47;;;5.94;63.16
44839;BME280;30576;42.098;24.876;2022-11-27T03:28:42;100918.22;;;5.89;63.48
44839;BME280;30576;42.098;24.876;2022-11-27T03:31:09;100917.84;;;5.72;63.42
44839;BME280;30576;42.098;24.876;2022-11-27T03:33:35;100919.88;;;5.84;63.25
44839;BME280;30576;42.098;24.876;2022-11-27T03:36:01;100924.16;;;5.82;63.60
44839;BME280;30576;42.098;24.876;2022-11-27T03:38:26;100912.94;;;5.86;63.24
44839;BME280;30576;42.098;24.876;2022-11-27T03:40:54;100920.72;;;5.83;63.10
44839;BME280;30576;42.098;24.876;2022-11-27T03:43:23;100917.44;;;5.92;63.49
44839;BME280;30576;42.098;24.876;2022-11-27T03:45:59;100917.50;;;5.95;63.30
44839;BME280;30576;42.098;24.876;2022-11-27T03:48:32;100915.00;;;5.98;63.52
44839;BME280;30576;42.098;24.876;2022-11-27T03:51:42;100910.88;;;6.09;63.14
44839;BME280;30576;42.098;24.876;2022-11-27T03:53:51;100908.97;;;6.04;63.36
44839;BME280;30576;42.098;24.876;2022-11-27T04:01:35;100911.75;;;6.10;62.48
44839;BME280;30576;42.098;24.876;2022-11-27T04:04:01;100911.81;;;6.13;62.64
44839;BME280;30576;42.098;24.876;2022-11-27T04:06:26;100908.38;;;6.16;62.74
44839;BME280;30576;42.098;24.876;2022-11-27T04:08:52;100908.38;;;6.16;62.79
44839;BME280;30576;42.098;24.876;2022-11-27T04:11:17;100901.28;;;6.12;62.67
44839;BME280;30576;42.098;24.876;2022-11-27T04:13:42;100910.53;;;5.96;62.63
44839;BME280;30576;42.098;24.876;2022-11-27T04:16:08;100893.91;;;5.94;62.23
44839;BME280;30576;42.098;24.876;2022-11-27T04:18:33;100895.09;;;6.06;61.72
44839;BME280;30576;42.098;24.876;2022-11-27T04:20:59;100900.16;;;5.99;61.49
44839;BME280;30576;42.098;24.876;2022-11-27T04:23:24;100896.47;;;5.92;61.90
44839;BME280;30576;42.098;24.876;2022-11-27T04:25:49;100898.91;;;6.22;61.60
44839;BME280;30576;42.098;24.876;2022-11-27T04:28:15;100903.19;;;6.17;61.93
44839;BME280;30576;42.098;24.876;2022-11-27T04:30:42;100906.47;;;6.08;62.47
44839;BME280;30576;42.098;24.876;2022-11-27T04:33:07;100897.81;;;6.11;62.44
44839;BME280;30576;42.098;24.876;2022-11-27T04:35:32;100905.56;;;6.06;61.97
44839;BME280;30576;42.098;24.876;2022-11-27T04:37:58;100913.66;;;6.17;61.30
44839;BME280;30576;42.098;24.876;2022-11-27T04:40:23;100902.66;;;5.96;61.78
44839;BME280;30576;42.098;24.876;2022-11-27T04:42:49;100903.50;;;5.95;62.42
44839;BME280;30576;42.098;24.876;2022-11-27T04:45:15;100907.78;;;5.91;61.74
44839;BME280;30576;42.098;24.876;2022-11-27T04:47:40;100910.38;;;5.89;62.34
44839;BME280;30576;42.098;24.876;2022-11-27T04:50:07;100915.09;;;5.68;62.21
44839;BME280;30576;42.098;24.876;2022-11-27T04:52:32;100911.38;;;5.58;62.73
44839;BME280;30576;42.098;24.876;2022-11-27T04:54:58;100911.41;;;5.60;62.72
44839;BME280;30576;42.098;24.876;2022-11-27T04:57:23;100908.94;;;5.66;63.17
44839;BME280;30576;42.098;24.876;2022-11-27T04:59:49;100909.41;;;5.84;62.69
44839;BME280;30576;42.098;24.876;2022-11-27T05:02:14;100908.38;;;5.79;62.53
44839;BME280;30576;42.098;24.876;2022-11-27T05:04:39;100916.78;;;6.01;62.54
44839;BME280;30576;42.098;24.876;2022-11-27T05:07:05;100919.25;;;5.96;63.30
44839;BME280;30576;42.098;24.876;2022-11-27T05:09:30;100911.94;;;6.19;62.75
44839;BME280;30576;42.098;24.876;2022-11-27T05:11:55;100913.75;;;6.22;62.65
44839;BME280;30576;42.098;24.876;2022-11-27T05:14:21;100908.31;;;6.13;63.08
44839;BME280;30576;42.098;24.876;2022-11-27T05:16:49;100919.94;;;6.25;62.78
44839;BME280;30576;42.098;24.876;2022-11-27T05:19:15;100919.06;;;6.25;62.65
44839;BME280;30576;42.098;24.876;2022-11-27T05:21:41;100915.75;;;6.32;62.86
44839;BME280;30576;42.098;24.876;2022-11-27T05:24:07;100918.41;;;6.34;62.87
44839;BME280;30576;42.098;24.876;2022-11-27T05:26:33;100924.66;;;6.40;62.54
44839;BME280;30576;42.098;24.876;2022-11-27T05:28:58;100925.44;;;6.36;63.04
44839;BME280;30576;42.098;24.876;2022-11-27T05:31:24;100922.94;;;6.42;62.84
44839;BME280;30576;42.098;24.876;2022-11-27T05:33:49;100922.09;;;6.43;62.61
44839;BME280;30576;42.098;24.876;2022-11-27T05:36:14;100922.25;;;6.51;62.45
44839;BME280;30576;42.098;24.876;2022-11-27T05:38:40;100921.91;;;6.34;61.45
44839;BME280;30576;42.098;24.876;2022-11-27T05:41:05;100931.75;;;6.06;61.80
44839;BME280;30576;42.098;24.876;2022-11-27T05:43:30;100937.56;;;5.95;61.82
44839;BME280;30576;42.098;24.876;2022-11-27T05:45:56;100933.19;;;5.94;61.88
44839;BME280;30576;42.098;24.876;2022-11-27T05:48:21;100930.53;;;5.92;61.95
44839;BME280;30576;42.098;24.876;2022-11-27T05:50:46;100930.56;;;5.94;62.04
44839;BME280;30576;42.098;24.876;2022-11-27T05:53:12;100934.47;;;6.11;61.82
44839;BME280;30576;42.098;24.876;2022-11-27T05:55:38;100929.41;;;6.19;61.35
44839;BME280;30576;42.098;24.876;2022-11-27T05:58:03;100932.16;;;6.23;61.17
44839;BME280;30576;42.098;24.876;2022-11-27T06:00:28;100945.56;;;6.37;61.51
44839;BME280;30576;42.098;24.876;2022-11-27T06:02:54;100946.44;;;6.38;61.37
44839;BME280;30576;42.098;24.876;2022-11-27T06:05:20;100954.44;;;6.44;61.17
44839;BME280;30576;42.098;24.876;2022-11-27T06:07:46;100954.84;;;6.23;61.71
44839;BME280;30576;42.098;24.876;2022-11-27T06:10:11;100959.22;;;6.24;61.81
44839;BME280;30576;42.098;24.876;2022-11-27T06:12:36;100956.09;;;6.40;62.16
44839;BME280;30576;42.098;24.876;2022-11-27T06:15:02;100965.09;;;6.52;61.62
44839;BME280;30576;42.098;24.876;2022-11-27T06:17:27;100963.22;;;6.46;61.26
44839;BME280;30576;42.098;24.876;2022-11-27T06:19:52;100960.69;;;6.49;61.46
44839;BME280;30576;42.098;24.876;2022-11-27T06:22:18;100973.34;;;6.70;61.09
44839;BME280;30576;42.098;24.876;2022-11-27T06:24:43;100972.47;;;6.70;61.37
44839;BME280;30576;42.098;24.876;2022-11-27T06:27:08;100965.78;;;6.86;61.27
44839;BME280;30576;42.098;24.876;2022-11-27T06:29:35;100966.50;;;6.77;61.05
44839;BME280;30576;42.098;24.876;2022-11-27T06:32:01;100953.75;;;6.94;60.67
44839;BME280;30576;42.098;24.876;2022-11-27T06:34:26;100957.34;;;7.01;60.55
44839;BME280;30576;42.098;24.876;2022-11-27T06:36:51;100956.44;;;6.98;60.93
44839;BME280;30576;42.098;24.876;2022-11-27T06:39:17;100963.59;;;7.07;60.69
44839;BME280;30576;42.098;24.876;2022-11-27T06:41:42;100966.38;;;7.15;60.66
44839;BME280;30576;42.098;24.876;2022-11-27T06:44:08;100964.66;;;7.15;60.86
44839;BME280;30576;42.098;24.876;2022-11-27T06:46:33;100967.91;;;7.04;60.97
44839;BME280;30576;42.098;24.876;2022-11-27T06:48:59;100964.84;;;7.26;60.44
44839;BME280;30576;42.098;24.876;2022-11-27T06:51:25;100965.22;;;7.01;60.30
44839;BME280;30576;42.098;24.876;2022-11-27T06:53:51;100961.22;;;7.20;60.82
44839;BME280;30576;42.098;24.876;2022-11-27T06:56:18;100965.00;;;7.34;60.47
44839;BME280;30576;42.098;24.876;2022-11-27T06:58:44;100956.13;;;7.29;59.86
44839;BME280;30576;42.098;24.876;2022-11-27T07:01:14;100964.28;;;6.97;61.14
44839;BME280;30576;42.098;24.876;2022-11-27T07:03:39;100962.78;;;7.10;60.53
44839;BME280;30576;42.098;24.876;2022-11-27T07:06:05;100958.09;;;7.41;60.85
44839;BME280;30576;42.098;24.876;2022-11-27T07:08:31;100955.75;;;7.56;59.37
44839;BME280;30576;42.098;24.876;2022-11-27T07:11:03;100959.97;;;7.46;58.68
44839;BME280;30576;42.098;24.876;2022-11-27T07:13:29;100964.91;;;7.29;58.65
44839;BME280;30576;42.098;24.876;2022-11-27T07:15:57;100964.38;;;7.49;59.23
44839;BME280;30576;42.098;24.876;2022-11-27T07:18:23;100958.53;;;7.64;59.31
44839;BME280;30576;42.098;24.876;2022-11-27T07:20:52;100964.19;;;7.88;58.18
44839;BME280;30576;42.098;24.876;2022-11-27T07:23:17;100967.97;;;8.07;58.47
44839;BME280;30576;42.098;24.876;2022-11-27T07:25:42;100961.59;;;7.92;56.08
44839;BME280;30576;42.098;24.876;2022-11-27T07:28:08;100975.13;;;7.63;56.65
44839;BME280;30576;42.098;24.876;2022-11-27T07:30:33;100969.19;;;7.73;57.24
44839;BME280;30576;42.098;24.876;2022-11-27T07:32:58;100965.53;;;8.20;57.06
44839;BME280;30576;42.098;24.876;2022-11-27T07:35:23;100964.53;;;8.10;56.30
44839;BME280;30576;42.098;24.876;2022-11-27T07:37:49;100961.38;;;8.34;55.85
44839;BME280;30576;42.098;24.876;2022-11-27T07:40:14;100934.81;;;8.16;55.50
44839;BME280;30576;42.098;24.876;2022-11-27T07:42:39;100964.25;;;8.50;55.63
44839;BME280;30576;42.098;24.876;2022-11-27T07:45:06;100960.44;;;8.31;54.38
44839;BME280;30576;42.098;24.876;2022-11-27T07:47:31;100960.06;;;8.66;54.66
44839;BME280;30576;42.098;24.876;2022-11-27T07:49:56;100961.97;;;8.74;54.16
44839;BME280;30576;42.098;24.876;2022-11-27T07:52:24;100968.63;;;8.49;54.41
44839;BME280;30576;42.098;24.876;2022-11-27T07:54:49;100970.84;;;8.23;54.90
44839;BME280;30576;42.098;24.876;2022-11-27T07:57:15;100963.44;;;8.55;54.04
44839;BME280;30576;42.098;24.876;2022-11-27T07:59:40;100968.34;;;7.74;55.73
44839;BME280;30576;42.098;24.876;2022-11-27T08:02:05;100964.34;;;7.99;55.24
44839;BME280;30576;42.098;24.876;2022-11-27T08:04:30;100967.19;;;8.13;55.25
44839;BME280;30576;42.098;24.876;2022-11-27T08:06:56;100964.22;;;8.47;55.33
44839;BME280;30576;42.098;24.876;2022-11-27T08:09:22;100964.06;;;8.37;54.05
44839;BME280;30576;42.098;24.876;2022-11-27T08:11:48;100963.19;;;8.38;53.86
44839;BME280;30576;42.098;24.876;2022-11-27T08:14:13;100967.84;;;7.98;54.11
44839;BME280;30576;42.098;24.876;2022-11-27T08:16:39;100962.66;;;8.04;54.77
44839;BME280;30576;42.098;24.876;2022-11-27T08:19:04;100968.13;;;7.62;54.95
44839;BME280;30576;42.098;24.876;2022-11-27T08:21:29;100969.47;;;7.90;54.89
44839;BME280;30576;42.098;24.876;2022-11-27T08:23:55;100961.69;;;7.98;55.24
44839;BME280;30576;42.098;24.876;2022-11-27T08:26:20;100963.16;;;8.37;54.35
44839;BME280;30576;42.098;24.876;2022-11-27T08:28:46;100970.34;;;8.46;54.69
44839;BME280;30576;42.098;24.876;2022-11-27T08:31:12;100963.81;;;8.83;53.57
44839;BME280;30576;42.098;24.876;2022-11-27T08:33:37;100958.56;;;8.86;52.63
44839;BME280;30576;42.098;24.876;2022-11-27T08:36:03;100959.84;;;9.18;52.41
44839;BME280;30576;42.098;24.876;2022-11-27T08:38:29;100949.38;;;9.25;52.62
44839;BME280;30576;42.098;24.876;2022-11-27T08:40:57;100952.91;;;9.27;52.24
44839;BME280;30576;42.098;24.876;2022-11-27T08:43:23;100956.78;;;8.82;53.03
44839;BME280;30576;42.098;24.876;2022-11-27T08:45:49;100951.06;;;9.22;52.22
44839;BME280;30576;42.098;24.876;2022-11-27T08:48:14;100950.13;;;9.15;52.09
44839;BME280;30576;42.098;24.876;2022-11-27T08:50:40;100944.81;;;9.09;52.09
44839;BME280;30576;42.098;24.876;2022-11-27T08:53:05;100950.97;;;9.11;52.64
44839;BME280;30576;42.098;24.876;2022-11-27T08:55:31;100949.81;;;8.86;51.51
44839;BME280;30576;42.098;24.876;2022-11-27T08:57:56;100956.34;;;9.22;52.99
44839;BME280;30576;42.098;24.876;2022-11-27T09:00:21;100952.22;;;9.47;52.78
44839;BME280;30576;42.098;24.876;2022-11-27T09:02:46;100951.25;;;9.40;54.37
44839;BME280;30576;42.098;24.876;2022-11-27T09:05:12;100950.88;;;9.97;51.57
44839;BME280;30576;42.098;24.876;2022-11-27T09:07:37;100944.63;;;9.82;50.63
44839;BME280;30576;42.098;24.876;2022-11-27T09:10:05;100946.13;;;9.54;50.62
44839;BME280;30576;42.098;24.876;2022-11-27T09:12:30;100934.91;;;9.75;51.67
44839;BME280;30576;42.098;24.876;2022-11-27T09:14:55;100937.53;;;9.75;50.36
44839;BME280;30576;42.098;24.876;2022-11-27T09:17:21;100933.22;;;9.86;51.01
44839;BME280;30576;42.098;24.876;2022-11-27T09:19:46;100921.56;;;9.54;49.93
44839;BME280;30576;42.098;24.876;2022-11-27T09:22:11;100925.41;;;8.99;51.62
44839;BME280;30576;42.098;24.876;2022-11-27T09:24:37;100920.28;;;9.13;51.70
44839;BME280;30576;42.098;24.876;2022-11-27T09:27:02;100919.63;;;9.36;51.03
44839;BME280;30576;42.098;24.876;2022-11-27T09:29:27;100909.50;;;9.85;51.83
44839;BME280;30576;42.098;24.876;2022-11-27T09:31:53;100914.72;;;9.79;50.19
44839;BME280;30576;42.098;24.876;2022-11-27T09:34:18;100905.78;;;9.58;50.42
44839;BME280;30576;42.098;24.876;2022-11-27T09:36:43;100902.25;;;9.53;52.12
44839;BME280;30576;42.098;24.876;2022-11-27T09:39:09;100889.38;;;9.93;50.24
44839;BME280;30576;42.098;24.876;2022-11-27T09:41:37;100885.97;;;10.14;50.58
44839;BME280;30576;42.098;24.876;2022-11-27T09:46:47;100867.34;;;9.88;50.39
44839;BME280;30576;42.098;24.876;2022-11-27T09:49:15;100864.88;;;10.17;49.78
44839;BME280;30576;42.098;24.876;2022-11-27T09:56:33;100858.69;;;10.09;50.09
44839;BME280;30576;42.098;24.876;2022-11-27T09:58:59;100854.47;;;10.37;48.51
44839;BME280;30576;42.098;24.876;2022-11-27T10:01:26;100848.31;;;10.34;48.83
44839;BME280;30576;42.098;24.876;2022-11-27T10:03:52;100845.75;;;10.55;48.49
44839;BME280;30576;42.098;24.876;2022-11-27T10:06:31;100836.16;;;10.88;48.46
44839;BME280;30576;42.098;24.876;2022-11-27T10:17:40;100835.19;;;10.52;47.65
44839;BME280;30576;42.098;24.876;2022-11-27T10:19:52;100841.22;;;10.30;49.08
44839;BME280;30576;42.098;24.876;2022-11-27T10:22:23;100841.34;;;10.59;49.03
44839;BME280;30576;42.098;24.876;2022-11-27T10:27:24;100823.84;;;11.03;47.61
44839;BME280;30576;42.098;24.876;2022-11-27T10:29:53;100824.75;;;11.26;47.16
44839;BME280;30576;42.098;24.876;2022-11-27T10:32:19;100823.84;;;11.35;47.70
44839;BME280;30576;42.098;24.876;2022-11-27T10:34:46;100815.06;;;11.30;47.75
44839;BME280;30576;42.098;24.876;2022-11-27T10:39:47;100789.50;;;11.41;47.11
44839;BME280;30576;42.098;24.876;2022-11-27T10:42:16;100791.28;;;11.15;47.11
44839;BME280;30576;42.098;24.876;2022-11-27T10:44:46;100784.94;;;10.21;48.06
44839;BME280;30576;42.098;24.876;2022-11-27T10:47:12;100778.00;;;10.44;48.98
44839;BME280;30576;42.098;24.876;2022-11-27T10:49:39;100772.81;;;11.02;48.79
44839;BME280;30576;42.098;24.876;2022-11-27T10:52:04;100771.00;;;11.44;45.75
44839;BME280;30576;42.098;24.876;2022-11-27T10:54:32;100773.66;;;11.51;47.51
44839;BME280;30576;42.098;24.876;2022-11-27T10:57:11;100769.25;;;11.57;45.96
44839;BME280;30576;42.098;24.876;2022-11-27T10:59:45;100773.59;;;11.74;45.39
44839;BME280;30576;42.098;24.876;2022-11-27T11:02:29;100778.00;;;11.95;44.79
44839;BME280;30576;42.098;24.876;2022-11-27T11:04:56;100770.78;;;12.32;44.44
44839;BME280;30576;42.098;24.876;2022-11-27T11:07:23;100769.91;;;12.30;43.06
44839;BME280;30576;42.098;24.876;2022-11-27T11:09:49;100767.22;;;12.40;42.14
44839;BME280;30576;42.098;24.876;2022-11-27T11:12:15;100761.88;;;12.49;42.09
44839;BME280;30576;42.098;24.876;2022-11-27T11:14:49;100755.81;;;12.27;42.97
44839;BME280;30576;42.098;24.876;2022-11-27T11:17:15;100757.63;;;12.12;43.44
44839;BME280;30576;42.098;24.876;2022-11-27T11:19:41;100748.84;;;12.07;44.29
44839;BME280;30576;42.098;24.876;2022-11-27T11:22:16;100743.34;;;12.47;41.30
44839;BME280;30576;42.098;24.876;2022-11-27T11:24:48;100751.34;;;12.36;42.42
44839;BME280;30576;42.098;24.876;2022-11-27T11:27:16;100732.81;;;12.40;42.04
44839;BME280;30576;42.098;24.876;2022-11-27T11:29:49;100742.56;;;12.33;41.96
44839;BME280;30576;42.098;24.876;2022-11-27T11:34:45;100731.88;;;12.51;43.05
44839;BME280;30576;42.098;24.876;2022-11-27T11:37:34;100729.13;;;12.65;41.94
44839;BME280;30576;42.098;24.876;2022-11-27T11:40:42;100726.59;;;12.48;40.81
44839;BME280;30576;42.098;24.876;2022-11-27T11:42:53;100723.19;;;12.26;40.41
44839;BME280;30576;42.098;24.876;2022-11-27T11:45:20;100716.00;;;12.48;40.54
44839;BME280;30576;42.098;24.876;2022-11-27T11:47:53;100712.44;;;12.51;40.70
44839;BME280;30576;42.098;24.876;2022-11-27T11:50:26;100716.75;;;12.67;39.16
44839;BME280;30576;42.098;24.876;2022-11-27T11:53:04;100706.88;;;12.88;37.60
44839;BME280;30576;42.098;24.876;2022-11-27T12:00:48;100697.31;;;12.71;38.88
44839;BME280;30576;42.098;24.876;2022-11-27T12:13:27;100677.97;;;12.62;36.19
44839;BME280;30576;42.098;24.876;2022-11-27T12:29:31;100672.88;;;12.32;38.93
44839;BME280;30576;42.098;24.876;2022-11-27T12:31:52;100659.47;;;12.57;37.71
44839;BME280;30576;42.098;24.876;2022-11-27T12:37:11;100662.78;;;12.85;35.72
44839;BME280;30576;42.098;24.876;2022-11-27T12:52:42;100654.78;;;12.92;35.64
44839;BME280;30576;42.098;24.876;2022-11-27T12:57:41;100660.09;;;12.92;34.62
44839;BME280;30576;42.098;24.876;2022-11-27T13:00:18;100658.25;;;12.97;35.80
44839;BME280;30576;42.098;24.876;2022-11-27T13:03:06;100659.09;;;13.00;35.39
44839;BME280;30576;42.098;24.876;2022-11-27T13:05:35;100661.56;;;13.17;35.39
44839;BME280;30576;42.098;24.876;2022-11-27T13:08:04;100651.81;;;13.24;34.55
44839;BME280;30576;42.098;24.876;2022-11-27T13:16:04;100654.84;;;12.85;34.54
44839;BME280;30576;42.098;24.876;2022-11-27T13:18:32;100652.19;;;12.85;36.22
44839;BME280;30576;42.098;24.876;2022-11-27T13:21:00;100651.06;;;13.10;34.11
44839;BME280;30576;42.098;24.876;2022-11-27T13:23:29;100649.50;;;12.92;33.39
44839;BME280;30576;42.098;24.876;2022-11-27T13:25:55;100657.41;;;12.93;33.47
44839;BME280;30576;42.098;24.876;2022-11-27T13:28:25;100653.88;;;12.93;34.82
44839;BME280;30576;42.098;24.876;2022-11-27T13:30:56;100653.84;;;12.96;33.89
44839;BME280;30576;42.098;24.876;2022-11-27T13:33:29;100655.66;;;12.90;33.68
44839;BME280;30576;42.098;24.876;2022-11-27T13:35:57;100645.09;;;12.87;33.92
44839;BME280;30576;42.098;24.876;2022-11-27T13:38:24;100655.81;;;12.74;34.37
44839;BME280;30576;42.098;24.876;2022-11-27T13:40:50;100652.22;;;12.84;34.45
44839;BME280;30576;42.098;24.876;2022-11-27T13:46:02;100648.59;;;12.91;35.79
44839;BME280;30576;42.098;24.876;2022-11-27T13:48:32;100646.13;;;12.71;35.27
44839;BME280;30576;42.098;24.876;2022-11-27T13:50:58;100648.88;;;12.57;35.25
44839;BME280;30576;42.098;24.876;2022-11-27T13:53:32;100646.22;;;12.60;35.57
44839;BME280;30576;42.098;24.876;2022-11-27T13:55:58;100659.56;;;12.46;36.61
44839;BME280;30576;42.098;24.876;2022-11-27T13:58:29;100651.63;;;12.45;35.58
44839;BME280;30576;42.098;24.876;2022-11-27T14:00:54;100645.53;;;12.36;36.12
44839;BME280;30576;42.098;24.876;2022-11-27T14:03:27;100645.56;;;12.30;37.29
44839;BME280;30576;42.098;24.876;2022-11-27T14:05:52;100640.22;;;12.38;37.65
44839;BME280;30576;42.098;24.876;2022-11-27T14:08:22;100649.09;;;12.28;35.71
44839;BME280;30576;42.098;24.876;2022-11-27T14:10:50;100649.13;;;12.25;35.78
44839;BME280;30576;42.098;24.876;2022-11-27T14:13:16;100649.97;;;12.31;34.98
44839;BME280;30576;42.098;24.876;2022-11-27T14:15:42;100644.72;;;12.28;35.12
44839;BME280;30576;42.098;24.876;2022-11-27T14:18:17;100648.22;;;12.27;34.70
44839;BME280;30576;42.098;24.876;2022-11-27T14:20:51;100635.88;;;12.29;35.20
44839;BME280;30576;42.098;24.876;2022-11-27T14:23:27;100639.53;;;12.13;34.93
44839;BME280;30576;42.098;24.876;2022-11-27T14:28:30;100638.66;;;12.06;35.48
44839;BME280;30576;42.098;24.876;2022-11-27T14:30:59;100640.44;;;12.03;36.09
44839;BME280;30576;42.098;24.876;2022-11-27T14:33:26;100641.28;;;12.08;40.80
44839;BME280;30576;42.098;24.876;2022-11-27T14:35:55;100646.53;;;12.15;38.71
44839;BME280;30576;42.098;24.876;2022-11-27T14:38:21;100639.53;;;12.10;37.86
44839;BME280;30576;42.098;24.876;2022-11-27T14:40:47;100644.84;;;12.05;36.90